Time;durP1;ratioP1;P1;durP2;ratioP2;P2;SDS_P1;SDS_P2;PMS_P1;PMS_P2;Temp;Humidity;BMP_temperature;BMP_pressure;BME280_temperature;BME280_humidity;BME280_pressure;Samples;Min_cycle;Max_cycle;Signal;HPM_P1;HPM_P2
2022/01/16 00:00:53;;;;;;;70.20;36.35;;;2.00;99.90;;;;;;5062237;28;20058;-66
2022/01/16 00:06:03;;;;;;;68.00;35.80;;;2.00;99.90;;;;;;5060467;28;20060;-66
2022/01/16 00:08:29;;;;;;;72.20;37.80;;;2.00;99.90;;;;;;5058702;28;20040;-66
2022/01/16 00:10:56;;;;;;;68.05;35.45;;;2.00;99.90;;;;;;5060142;28;20173;-66
2022/01/16 00:13:23;;;;;;;76.78;38.60;;;2.00;99.90;;;;;;5061156;28;20099;-66
2022/01/16 00:15:49;;;;;;;63.20;35.58;;;1.90;99.90;;;;;;5057810;28;20044;-66
2022/01/16 00:18:24;;;;;;;64.32;34.03;;;1.90;99.90;;;;;;5059844;28;20029;-66
2022/01/16 00:20:50;;;;;;;65.72;35.13;;;1.90;99.90;;;;;;5062740;28;20546;-66
2022/01/16 00:23:28;;;;;;;65.93;34.67;;;1.80;99.90;;;;;;5064299;28;20107;-66
2022/01/16 00:25:56;;;;;;;70.47;35.35;;;1.80;99.90;;;;;;5056401;28;20058;-66
2022/01/16 00:28:23;;;;;;;64.45;34.60;;;1.70;99.90;;;;;;5062841;28;20044;-66
2022/01/16 00:30:50;;;;;;;62.75;32.90;;;1.70;99.90;;;;;;5063878;28;20120;-66
2022/01/16 00:33:16;;;;;;;66.47;34.28;;;1.70;99.90;;;;;;5060630;28;20467;-65
2022/01/16 00:35:42;;;;;;;62.03;32.78;;;1.70;99.90;;;;;;5059579;28;20055;-65
2022/01/16 00:38:09;;;;;;;56.15;30.63;;;1.70;99.90;;;;;;5065334;28;20036;-65
2022/01/16 00:40:35;;;;;;;62.35;31.95;;;1.70;99.90;;;;;;5062636;28;20033;-65
2022/01/16 00:43:01;;;;;;;61.40;32.38;;;1.70;99.90;;;;;;5055630;28;20048;-65
2022/01/16 00:45:34;;;;;;;62.80;31.80;;;1.70;99.90;;;;;;5059847;28;20051;-66
2022/01/16 00:48:03;;;;;;;61.13;29.55;;;1.60;99.90;;;;;;5060317;28;20028;-66
2022/01/16 00:50:30;;;;;;;60.50;31.08;;;1.60;99.90;;;;;;5055925;28;20350;-66
2022/01/16 00:52:56;;;;;;;64.15;30.48;;;1.60;99.90;;;;;;5063677;28;20033;-66
2022/01/16 00:55:22;;;;;;;65.65;32.55;;;1.60;99.90;;;;;;5065178;28;20032;-67
2022/01/16 00:57:47;;;;;;;70.47;32.78;;;1.60;99.90;;;;;;5061413;28;20497;-66
2022/01/16 01:00:13;;;;;;;68.65;33.42;;;1.60;99.90;;;;;;5061658;28;20040;-66
2022/01/16 01:02:39;;;;;;;76.68;35.42;;;1.60;99.90;;;;;;5064997;28;20525;-67
2022/01/16 01:05:05;;;;;;;71.28;33.17;;;1.60;99.90;;;;;;5060917;28;20072;-67
2022/01/16 01:07:31;;;;;;;73.03;34.25;;;1.60;99.90;;;;;;5064867;28;20043;-67
2022/01/16 01:09:57;;;;;;;74.55;33.92;;;1.60;99.90;;;;;;5064962;28;20493;-64
2022/01/16 01:12:40;;;;;;;79.25;35.85;;;1.60;99.90;;;;;;5059228;28;20996;-67
2022/01/16 01:15:08;;;;;;;78.13;34.85;;;1.60;99.90;;;;;;5060480;28;20048;-66
2022/01/16 01:17:43;;;;;;;78.13;35.15;;;1.60;99.90;;;;;;5062920;28;20045;-67
2022/01/16 01:20:09;;;;;;;;;;;1.60;99.90;;;;;;5063717;28;20392;-67
2022/01/16 01:22:35;;;;;;;77.43;35.33;;;1.60;99.90;;;;;;5062740;28;19917;-67
2022/01/16 01:25:01;;;;;;;86.90;37.50;;;1.70;99.90;;;;;;5064250;28;20205;-67
2022/01/16 01:27:31;;;;;;;88.00;39.35;;;1.70;99.90;;;;;;5065467;28;20049;-66
2022/01/16 01:30:02;;;;;;;87.47;38.00;;;1.70;99.90;;;;;;5067617;28;20040;-65
2022/01/16 01:32:28;;;;;;;96.20;40.75;;;1.70;99.90;;;;;;5064699;28;20088;-65
2022/01/16 01:34:54;;;;;;;96.07;40.25;;;1.70;99.90;;;;;;5060252;28;20055;-65
2022/01/16 01:37:20;;;;;;;98.30;41.05;;;1.70;99.90;;;;;;5058709;28;20045;-65
2022/01/16 01:39:45;;;;;;;105.47;44.88;;;1.70;99.90;;;;;;5066011;28;20161;-65
2022/01/16 01:42:12;;;;;;;98.47;40.70;;;1.70;99.90;;;;;;5061429;28;20101;-65
2022/01/16 01:52:56;;;;;;;104.95;44.28;;;1.80;99.90;;;;;;5061107;28;20043;-66
2022/01/16 01:55:24;;;;;;;112.43;44.00;;;1.80;99.90;;;;;;5060624;28;20588;-66
2022/01/16 01:57:49;;;;;;;111.75;44.63;;;1.80;99.90;;;;;;5059187;28;20083;-66
2022/01/16 02:00:18;;;;;;;116.28;46.25;;;1.80;99.90;;;;;;5065339;28;20437;-66
2022/01/16 02:03:30;;;;;;;118.45;44.55;;;1.80;99.90;;;;;;5060231;28;20040;-66
2022/01/16 02:05:44;;;;;;;118.35;44.67;;;1.80;99.90;;;;;;5057152;28;20055;-66
2022/01/16 02:08:10;;;;;;;115.25;43.08;;;1.80;99.90;;;;;;5061077;28;20037;-67
2022/01/16 02:10:37;;;;;;;110.53;42.08;;;1.90;99.90;;;;;;5061579;28;20295;-66
2022/01/16 02:13:06;;;;;;;95.65;39.28;;;1.90;99.90;;;;;;5061850;28;20051;-67
2022/01/16 02:29:56;;;;;;;120.20;44.57;;;1.90;99.90;;;;;;5064608;28;20365;-65
2022/01/16 02:32:24;;;;;;;115.03;43.28;;;1.90;99.90;;;;;;5059703;28;20044;-65
2022/01/16 02:34:45;;;;;;;116.35;41.88;;;1.90;99.90;;;;;;5060202;28;20611;-65
2022/01/16 02:37:13;;;;;;;120.90;44.42;;;2.00;99.90;;;;;;5060055;28;20048;-65
2022/01/16 02:39:42;;;;;;;130.82;44.03;;;2.00;99.90;;;;;;5064053;28;20131;-65
2022/01/16 02:42:11;;;;;;;119.28;43.08;;;2.00;99.90;;;;;;5060291;28;20047;-65
2022/01/16 02:44:46;;;;;;;158.10;47.15;;;2.00;99.90;;;;;;5065795;28;20048;-65
2022/01/16 02:47:17;;;;;;;143.13;48.10;;;2.00;99.90;;;;;;5062080;28;20040;-65
2022/01/16 02:49:47;;;;;;;161.23;49.03;;;2.00;99.90;;;;;;5059090;28;20052;-66
2022/01/16 02:52:18;;;;;;;171.48;50.92;;;2.00;99.90;;;;;;5061325;28;20051;-65
2022/01/16 02:54:47;;;;;;;146.93;45.88;;;2.00;99.90;;;;;;5062955;28;20067;-65
2022/01/16 02:57:15;;;;;;;163.85;48.28;;;2.00;99.90;;;;;;5057502;28;20052;-65
2022/01/16 02:59:48;;;;;;;141.20;46.88;;;2.00;99.90;;;;;;5058156;28;20044;-66
2022/01/16 03:02:15;;;;;;;154.45;49.33;;;2.00;99.90;;;;;;5058817;28;20045;-65
2022/01/16 03:04:41;;;;;;;173.60;48.25;;;2.10;99.90;;;;;;5055740;28;20043;-65
2022/01/16 03:07:07;;;;;;;163.05;48.78;;;2.00;99.90;;;;;;5059038;28;20036;-65
2022/01/16 03:10:01;;;;;;;169.80;50.95;;;2.10;99.90;;;;;;5060221;28;20125;-65
2022/01/16 03:12:28;;;;;;;185.45;48.33;;;2.10;99.90;;;;;;5061282;28;20076;-65
2022/01/16 03:14:54;;;;;;;184.02;48.13;;;2.10;99.90;;;;;;5060773;28;20114;-65
2022/01/16 03:21:52;;;;;;;189.43;49.38;;;2.10;99.90;;;;;;5059863;28;20048;-65
2022/01/16 03:22:54;;;;;;;168.93;48.22;;;2.10;99.90;;;;;;5062046;28;20511;-65
2022/01/16 03:25:20;;;;;;;165.52;47.85;;;2.10;99.90;;;;;;5062233;28;20056;-66
2022/01/16 03:27:46;;;;;;;168.35;49.28;;;2.20;99.90;;;;;;5060023;28;20062;-66
2022/01/16 03:30:13;;;;;;;146.77;47.20;;;2.20;99.90;;;;;;5058521;28;20040;-65
2022/01/16 03:32:39;;;;;;;153.02;46.70;;;2.20;99.90;;;;;;5058766;28;20033;-65
2022/01/16 03:35:05;;;;;;;161.35;47.72;;;2.20;99.90;;;;;;5062363;28;20398;-65
2022/01/16 03:37:31;;;;;;;182.63;48.67;;;2.20;99.90;;;;;;5058772;28;20743;-65
2022/01/16 03:39:57;;;;;;;149.23;44.75;;;2.20;99.90;;;;;;5060120;28;20041;-65
2022/01/16 03:42:28;;;;;;;154.77;45.42;;;2.20;99.90;;;;;;5059975;28;20036;-65
2022/01/16 03:44:53;;;;;;;175.07;47.33;;;2.20;99.90;;;;;;5059718;28;20067;-66
2022/01/16 03:47:19;;;;;;;140.95;45.58;;;2.20;99.90;;;;;;5058796;28;20048;-66
2022/01/16 03:49:44;;;;;;;147.52;44.92;;;2.20;99.90;;;;;;5061793;28;20052;-65
2022/01/16 03:52:10;;;;;;;161.40;43.78;;;2.30;99.90;;;;;;5061803;28;20116;-65
2022/01/16 03:54:36;;;;;;;137.48;43.45;;;2.30;99.90;;;;;;5059033;28;20041;-66
2022/01/16 03:57:02;;;;;;;142.18;44.83;;;2.30;99.90;;;;;;5061148;28;20037;-65
2022/01/16 03:59:28;;;;;;;164.55;45.03;;;2.30;99.90;;;;;;5062130;28;20028;-66
2022/01/16 04:01:54;;;;;;;143.73;43.58;;;2.30;99.90;;;;;;5061743;28;20036;-66
2022/01/16 04:04:20;;;;;;;136.05;43.17;;;2.30;99.90;;;;;;5066757;28;20072;-66
2022/01/16 04:06:46;;;;;;;144.43;44.58;;;2.40;99.90;;;;;;5060320;28;20574;-65
2022/01/16 04:09:11;;;;;;;155.60;45.95;;;2.40;99.90;;;;;;5063091;28;20381;-65
2022/01/16 04:11:44;;;;;;;154.98;45.90;;;2.40;99.90;;;;;;5062565;28;20227;-65
2022/01/16 04:14:15;;;;;;;151.82;44.83;;;2.40;99.90;;;;;;5066093;28;20044;-66
2022/01/16 04:16:41;;;;;;;142.43;44.72;;;2.40;99.90;;;;;;5064178;28;20048;-65
2022/01/16 04:19:07;;;;;;;139.18;43.80;;;2.40;99.90;;;;;;5065452;28;20033;-65
2022/01/16 04:21:33;;;;;;;141.93;45.28;;;2.40;99.90;;;;;;5061270;28;20052;-65
2022/01/16 04:23:59;;;;;;;156.38;45.60;;;2.40;99.90;;;;;;5062398;28;20532;-65
2022/01/16 04:26:26;;;;;;;140.63;46.13;;;2.40;99.90;;;;;;5060957;28;20120;-65
2022/01/16 04:28:53;;;;;;;146.15;43.22;;;2.40;99.90;;;;;;5066300;28;20492;-65
2022/01/16 04:31:20;;;;;;;138.55;45.20;;;2.50;99.90;;;;;;5064062;28;20040;-65
2022/01/16 04:33:46;;;;;;;143.70;44.83;;;2.50;99.90;;;;;;5062413;28;20522;-65
2022/01/16 04:36:12;;;;;;;150.98;44.60;;;2.50;99.90;;;;;;5066743;28;20040;-65
2022/01/16 04:38:44;;;;;;;168.68;48.03;;;2.60;99.90;;;;;;5062872;28;20528;-65
2022/01/16 04:43:55;;;;;;;135.60;43.97;;;2.60;99.90;;;;;;5065245;28;20529;-65
2022/01/16 04:46:23;;;;;;;146.57;44.95;;;2.60;99.90;;;;;;5063478;28;20158;-65
2022/01/16 04:48:50;;;;;;;150.07;47.22;;;2.60;99.90;;;;;;5062417;28;20033;-65
2022/01/16 04:51:16;;;;;;;152.63;45.88;;;2.70;99.90;;;;;;5062514;28;20376;-66
2022/01/16 04:53:42;;;;;;;134.07;41.95;;;2.70;99.90;;;;;;5063809;28;20040;-66
2022/01/16 04:56:09;;;;;;;149.48;45.35;;;2.70;99.90;;;;;;5065652;28;20067;-65
2022/01/16 04:58:36;;;;;;;148.40;47.10;;;2.70;99.90;;;;;;5062027;28;20040;-65
2022/01/16 05:01:03;;;;;;;144.70;45.08;;;2.80;99.90;;;;;;5065387;28;20040;-66
2022/01/16 05:03:30;;;;;;;165.80;47.05;;;2.70;99.90;;;;;;5065072;28;20032;-66
2022/01/16 05:05:57;;;;;;;132.02;44.53;;;2.70;99.90;;;;;;5065281;28;20342;-66
2022/01/16 05:08:23;;;;;;;145.32;47.00;;;2.70;99.90;;;;;;5058803;28;20048;-66
2022/01/16 05:10:53;;;;;;;143.23;43.83;;;2.80;99.90;;;;;;5059724;28;20074;-65
2022/01/16 05:18:40;;;;;;;141.60;45.22;;;2.80;99.90;;;;;;5062141;28;20109;-65
2022/01/16 05:21:06;;;;;;;141.35;45.35;;;2.80;99.90;;;;;;5055669;28;20028;-65
2022/01/16 05:23:34;;;;;;;135.45;43.85;;;2.90;99.90;;;;;;5057033;28;20097;-65
2022/01/16 05:26:01;;;;;;;137.35;46.03;;;2.80;99.90;;;;;;5059026;28;20067;-65
2022/01/16 05:28:27;;;;;;;134.82;44.65;;;2.90;99.90;;;;;;5056129;28;20469;-65
2022/01/16 05:30:53;;;;;;;141.75;46.70;;;2.90;99.90;;;;;;5059850;28;20394;-66
2022/01/16 05:33:19;;;;;;;151.95;47.25;;;2.90;99.90;;;;;;5063147;28;20040;-65
2022/01/16 05:35:46;;;;;;;124.75;43.17;;;2.90;99.90;;;;;;5062996;28;20050;-65
2022/01/16 05:38:11;;;;;;;131.23;46.50;;;2.90;99.90;;;;;;5060680;28;20101;-65
2022/01/16 05:40:38;;;;;;;138.43;45.30;;;3.00;99.90;;;;;;5065239;28;20032;-65
2022/01/16 05:43:04;;;;;;;142.05;47.15;;;3.00;99.90;;;;;;5059620;28;20052;-65
2022/01/16 05:45:30;;;;;;;135.73;45.85;;;3.00;99.90;;;;;;5066127;28;20044;-66
2022/01/16 05:47:55;;;;;;;124.50;44.25;;;3.00;99.90;;;;;;5064281;28;20049;-65
2022/01/16 05:50:23;;;;;;;142.38;45.70;;;3.00;99.90;;;;;;5062755;28;20049;-65
2022/01/16 05:52:49;;;;;;;129.10;45.83;;;3.00;99.90;;;;;;5074502;28;20524;-65
2022/01/16 05:55:16;;;;;;;134.15;44.85;;;3.00;99.90;;;;;;5063531;28;20204;-65
2022/01/16 05:57:42;;;;;;;141.35;45.45;;;3.00;99.90;;;;;;5062076;28;20044;-65
2022/01/16 06:00:09;;;;;;;129.57;44.03;;;3.10;99.90;;;;;;5070158;28;20033;-65
2022/01/16 06:02:36;;;;;;;135.95;44.05;;;3.10;99.90;;;;;;5063182;28;20033;-65
2022/01/16 06:05:02;;;;;;;140.35;47.10;;;3.10;99.90;;;;;;5059552;28;20652;-66
2022/01/16 06:07:28;;;;;;;140.00;45.95;;;3.10;99.90;;;;;;5061833;28;20066;-65
2022/01/16 06:09:54;;;;;;;130.30;43.35;;;3.10;99.90;;;;;;5065230;28;20595;-65
2022/01/16 06:12:20;;;;;;;140.55;47.25;;;3.20;99.90;;;;;;5060392;28;20076;-65
2022/01/16 06:14:45;;;;;;;137.50;47.50;;;3.20;99.90;;;;;;5060851;28;20043;-66
2022/01/16 06:17:11;;;;;;;128.63;44.85;;;3.20;99.90;;;;;;5063622;28;20040;-65
2022/01/16 06:19:37;;;;;;;130.32;45.75;;;3.20;99.90;;;;;;5062198;28;20565;-65
2022/01/16 06:22:03;;;;;;;134.57;45.45;;;3.20;99.90;;;;;;5062005;28;20579;-65
2022/01/16 06:24:29;;;;;;;146.10;48.42;;;3.20;99.90;;;;;;5060581;28;20287;-65
2022/01/16 06:26:56;;;;;;;131.60;46.67;;;3.30;99.90;;;;;;5060506;28;20066;-65
2022/01/16 06:29:22;;;;;;;133.05;46.72;;;3.30;99.90;;;;;;5059452;28;20033;-65
2022/01/16 06:31:47;;;;;;;133.30;46.88;;;3.30;99.90;;;;;;5064097;28;20437;-65
2022/01/16 06:34:13;;;;;;;133.15;44.72;;;3.30;99.90;;;;;;5062917;28;20094;-65
2022/01/16 06:36:40;;;;;;;141.15;43.53;;;3.30;99.90;;;;;;5059327;28;20044;-65
2022/01/16 06:39:08;;;;;;;142.95;45.58;;;3.30;99.90;;;;;;5062827;28;20476;-65
2022/01/16 06:41:34;;;;;;;130.70;44.55;;;3.30;99.90;;;;;;5065802;28;20040;-65
2022/01/16 06:44:00;;;;;;;139.60;48.55;;;3.40;99.90;;;;;;5063654;28;20035;-65
2022/01/16 06:46:26;;;;;;;141.93;46.67;;;3.30;99.90;;;;;;5062230;28;20423;-65
2022/01/16 06:48:52;;;;;;;143.70;47.83;;;3.40;99.90;;;;;;5062445;28;20516;-65
2022/01/16 06:51:19;;;;;;;139.18;48.03;;;3.40;99.90;;;;;;5059614;28;20067;-65
2022/01/16 06:53:49;;;;;;;139.57;48.83;;;3.40;99.90;;;;;;5062419;28;20106;-65
2022/01/16 06:56:16;;;;;;;147.63;49.38;;;3.40;99.90;;;;;;5060981;28;20055;-65
2022/01/16 06:58:43;;;;;;;138.80;46.72;;;3.40;99.90;;;;;;5060388;28;20109;-65
2022/01/16 07:01:10;;;;;;;131.35;45.75;;;3.40;99.90;;;;;;5061476;28;20103;-65
2022/01/16 07:03:36;;;;;;;133.02;47.03;;;3.50;99.90;;;;;;5058689;28;20029;-65
2022/01/16 07:06:04;;;;;;;148.02;48.38;;;3.50;99.90;;;;;;5056677;28;20126;-65
2022/01/16 07:08:30;;;;;;;130.75;46.22;;;3.50;99.90;;;;;;5054476;28;21730;-66
2022/01/16 07:11:00;;;;;;;134.85;47.33;;;3.50;99.90;;;;;;5057032;28;20051;-66
2022/01/16 07:13:28;;;;;;;128.32;47.10;;;3.50;99.90;;;;;;5056870;28;20048;-66
2022/01/16 07:15:53;;;;;;;135.65;47.92;;;3.50;99.90;;;;;;5055043;28;20146;-65
2022/01/16 07:18:21;;;;;;;147.38;49.20;;;3.50;99.90;;;;;;5049786;28;20128;-65
2022/01/16 07:20:47;;;;;;;138.18;48.33;;;3.60;99.90;;;;;;5057594;28;20047;-65
2022/01/16 07:23:14;;;;;;;119.50;46.05;;;3.60;99.90;;;;;;5053133;28;20099;-66
2022/01/16 07:25:41;;;;;;;140.82;49.75;;;3.60;99.90;;;;;;5056456;28;20123;-65
2022/01/16 07:28:07;;;;;;;139.77;50.25;;;3.70;99.90;;;;;;5057902;28;20033;-66
2022/01/16 07:30:33;;;;;;;128.52;47.08;;;3.70;99.90;;;;;;5054811;28;20071;-65
2022/01/16 07:33:00;;;;;;;133.95;48.28;;;3.70;99.90;;;;;;5058414;28;20092;-65
2022/01/16 07:35:26;;;;;;;127.30;46.63;;;3.70;99.90;;;;;;5056836;28;20037;-65
2022/01/16 07:37:52;;;;;;;131.48;48.60;;;3.80;99.90;;;;;;5057894;28;20099;-65
2022/01/16 07:40:20;;;;;;;131.30;48.42;;;3.80;99.90;;;;;;5060325;28;20505;-65
2022/01/16 07:42:46;;;;;;;139.13;48.47;;;3.90;99.90;;;;;;5057870;28;20109;-66
2022/01/16 07:45:12;;;;;;;133.10;47.63;;;3.90;99.90;;;;;;5042690;28;20044;-66
2022/01/16 07:47:38;;;;;;;125.57;48.83;;;4.00;99.90;;;;;;5073566;28;20060;-66
2022/01/16 07:50:05;;;;;;;123.20;46.72;;;4.00;99.90;;;;;;5054110;28;20080;-66
2022/01/16 07:52:30;;;;;;;127.90;48.53;;;4.00;99.90;;;;;;5057628;28;20053;-66
2022/01/16 07:54:56;;;;;;;121.53;48.13;;;4.10;99.90;;;;;;5053760;28;20056;-66
2022/01/16 07:57:22;;;;;;;125.72;47.58;;;4.10;99.90;;;;;;5060258;28;20033;-66
2022/01/16 07:59:47;;;;;;;121.38;47.78;;;4.10;99.90;;;;;;5058905;28;20040;-66
2022/01/16 08:02:13;;;;;;;120.38;49.15;;;4.20;99.90;;;;;;5055268;28;20404;-66
2022/01/16 08:04:39;;;;;;;119.28;48.30;;;4.20;99.90;;;;;;5068518;28;20412;-66
2022/01/16 08:07:07;;;;;;;116.88;48.10;;;4.30;99.90;;;;;;5057174;28;20082;-66
2022/01/16 08:09:32;;;;;;;114.85;47.80;;;4.30;99.90;;;;;;5064004;28;20356;-66
2022/01/16 08:11:59;;;;;;;111.35;45.90;;;4.30;99.90;;;;;;5057005;28;20061;-66
2022/01/16 08:14:25;;;;;;;110.43;44.58;;;4.40;99.90;;;;;;5057745;28;20475;-66
2022/01/16 08:16:51;;;;;;;108.20;45.45;;;4.40;99.90;;;;;;5064598;28;20120;-66
2022/01/16 08:19:16;;;;;;;115.00;47.85;;;4.40;99.90;;;;;;5055373;28;20033;-66
2022/01/16 08:21:42;;;;;;;118.85;46.15;;;4.40;99.90;;;;;;5063867;28;20521;-66
2022/01/16 08:24:08;;;;;;;110.72;46.47;;;4.50;99.90;;;;;;5053735;28;20530;-66
2022/01/16 08:26:34;;;;;;;108.40;45.47;;;4.50;99.90;;;;;;5042374;28;20052;-67
2022/01/16 08:29:00;;;;;;;119.35;47.13;;;4.50;99.90;;;;;;5058947;28;20117;-67
2022/01/16 08:31:26;;;;;;;119.63;49.10;;;4.50;99.90;;;;;;5052137;28;20041;-66
2022/01/16 08:33:52;;;;;;;111.88;46.72;;;4.50;99.90;;;;;;5056427;28;20408;-66
2022/01/16 08:36:17;;;;;;;99.35;44.88;;;4.60;99.90;;;;;;5056370;28;20093;-67
2022/01/16 08:38:43;;;;;;;99.28;46.05;;;4.60;99.90;;;;;;5055301;28;20037;-66
2022/01/16 08:41:09;;;;;;;99.18;45.88;;;4.60;99.90;;;;;;5062543;28;20060;-66
2022/01/16 08:43:35;;;;;;;102.28;44.13;;;4.60;99.90;;;;;;5060114;28;20094;-67
2022/01/16 08:46:00;;;;;;;92.18;44.08;;;4.60;99.90;;;;;;5056763;28;20435;-66
2022/01/16 08:48:30;;;;;;;106.00;45.17;;;4.70;99.90;;;;;;5042928;28;20044;-67
2022/01/16 08:50:56;;;;;;;93.40;44.17;;;4.70;99.90;;;;;;5061068;28;20442;-66
2022/01/16 08:53:21;;;;;;;95.30;41.75;;;4.60;99.90;;;;;;5059424;28;20048;-64
2022/01/16 08:55:47;;;;;;;95.28;42.90;;;4.70;99.90;;;;;;5059970;28;20028;-66
2022/01/16 08:58:13;;;;;;;92.90;42.88;;;4.70;99.90;;;;;;5063195;28;20037;-66
2022/01/16 09:00:40;;;;;;;97.80;44.85;;;4.70;99.90;;;;;;5061397;28;20504;-66
2022/01/16 09:03:06;;;;;;;87.57;42.40;;;4.70;99.90;;;;;;5058287;28;20409;-67
2022/01/16 09:05:31;;;;;;;94.05;43.80;;;4.80;99.90;;;;;;5064409;28;20037;-66
2022/01/16 09:07:57;;;;;;;85.90;41.15;;;4.80;99.90;;;;;;5056969;28;20136;-66
2022/01/16 09:10:23;;;;;;;82.45;41.53;;;4.90;99.90;;;;;;5063529;28;20037;-66
2022/01/16 09:12:49;;;;;;;91.82;43.72;;;4.90;99.90;;;;;;5062005;28;20079;-66
2022/01/16 09:15:15;;;;;;;88.65;43.17;;;5.00;99.90;;;;;;5061571;28;20033;-65
2022/01/16 09:17:41;;;;;;;80.78;40.97;;;5.10;99.90;;;;;;5060088;28;20049;-65
2022/01/16 09:20:08;;;;;;;77.70;39.25;;;5.20;99.90;;;;;;5062241;28;20043;-65
2022/01/16 09:22:36;;;;;;;77.75;40.00;;;5.20;99.90;;;;;;5057033;28;20052;-65
2022/01/16 09:25:07;;;;;;;75.90;39.75;;;5.20;99.90;;;;;;5062475;28;20048;-65
2022/01/16 09:27:33;;;;;;;73.10;41.60;;;5.30;99.90;;;;;;5059673;28;20062;-65
2022/01/16 09:29:59;;;;;;;76.78;37.55;;;5.30;99.90;;;;;;5064907;28;20029;-65
2022/01/16 09:32:26;;;;;;;70.10;38.15;;;5.30;99.90;;;;;;5061571;28;20048;-65
2022/01/16 09:34:51;;;;;;;68.75;39.60;;;5.30;99.90;;;;;;5061116;28;20112;-65
2022/01/16 09:37:17;;;;;;;70.15;37.35;;;5.40;99.90;;;;;;5060050;28;20116;-66
2022/01/16 09:39:43;;;;;;;68.40;36.72;;;5.40;99.90;;;;;;5060089;28;20091;-66
2022/01/16 09:42:09;;;;;;;65.15;37.15;;;5.50;99.90;;;;;;5065863;28;20039;-66
2022/01/16 09:44:38;;;;;;;66.18;37.60;;;5.50;99.90;;;;;;5064747;28;20098;-67
2022/01/16 09:47:03;;;;;;;64.70;35.88;;;5.50;99.90;;;;;;5060309;28;20052;-67
2022/01/16 09:49:29;;;;;;;63.55;35.13;;;5.50;99.90;;;;;;5058280;28;20040;-67
2022/01/16 09:51:55;;;;;;;62.83;35.53;;;5.60;99.90;;;;;;5060167;28;20548;-65
2022/01/16 09:54:22;;;;;;;60.03;35.17;;;5.60;99.90;;;;;;5055697;28;20036;-66
2022/01/16 09:56:49;;;;;;;58.83;36.38;;;5.60;99.90;;;;;;5056518;28;20037;-66
2022/01/16 09:59:15;;;;;;;63.63;33.47;;;5.60;99.90;;;;;;5060017;28;20401;-67
2022/01/16 10:01:41;;;;;;;56.58;33.30;;;5.60;99.90;;;;;;5062078;28;20548;-64
2022/01/16 10:04:37;;;;;;;59.45;34.30;;;5.70;99.90;;;;;;5063899;28;20043;-64
2022/01/16 10:07:07;;;;;;;;;;;5.70;99.90;;;;;;5068617;28;20037;-65
2022/01/16 10:09:35;;;;;;;52.55;32.90;;;5.70;99.90;;;;;;5066777;28;19934;-65
2022/01/16 10:12:03;;;;;;;53.95;32.13;;;5.70;99.90;;;;;;5064517;28;20057;-65
2022/01/16 10:14:45;;;;;;;54.58;31.67;;;5.70;99.90;;;;;;5063905;28;20049;-66
2022/01/16 10:17:25;;;;;;;50.20;32.00;;;5.80;99.90;;;;;;5062266;28;20408;-66
2022/01/16 10:20:05;;;;;;;51.15;32.53;;;5.80;99.90;;;;;;5063881;28;20090;-66
2022/01/16 10:22:58;;;;;;;50.33;30.50;;;5.80;99.90;;;;;;5062536;28;20087;-66
2022/01/16 10:25:43;;;;;;;57.15;30.65;;;5.80;99.90;;;;;;5064741;28;20053;-66
2022/01/16 10:28:14;;;;;;;;;;;5.80;99.90;;;;;;5057748;28;20090;-66
2022/01/16 10:30:45;;;;;;;55.85;29.83;;;5.80;99.90;;;;;;5063363;28;20054;-66
2022/01/16 10:33:16;;;;;;;48.97;28.75;;;5.80;99.90;;;;;;5058978;28;20431;-66
2022/01/16 10:35:43;;;;;;;46.38;27.48;;;5.90;99.90;;;;;;5058925;28;20405;-66
2022/01/16 10:38:15;;;;;;;48.15;27.67;;;5.90;99.90;;;;;;5060877;28;20546;-66
2022/01/16 10:40:44;;;;;;;44.20;27.98;;;5.90;99.90;;;;;;5056723;28;20438;-66
2022/01/16 10:43:16;;;;;;;43.53;28.30;;;5.90;99.90;;;;;;5062887;28;20073;-66
2022/01/16 10:45:43;;;;;;;46.88;28.10;;;5.90;99.90;;;;;;5057558;28;20080;-66
2022/01/16 10:48:11;;;;;;;41.85;26.00;;;6.00;99.90;;;;;;5058060;28;20443;-66
2022/01/16 10:50:43;;;;;;;38.90;25.02;;;6.00;99.90;;;;;;5064352;28;20615;-66
2022/01/16 10:53:17;;;;;;;41.22;24.23;;;6.00;99.90;;;;;;5064012;28;20036;-66
2022/01/16 10:55:52;;;;;;;36.35;22.80;;;6.00;99.90;;;;;;5062005;28;20037;-66
2022/01/16 10:58:27;;;;;;;39.95;23.52;;;6.10;99.90;;;;;;5062685;28;20127;-66
2022/01/16 11:01:03;;;;;;;34.15;21.58;;;6.10;99.90;;;;;;5065458;28;20040;-66
2022/01/16 11:03:45;;;;;;;34.60;21.45;;;6.10;99.90;;;;;;5057749;28;20089;-66
2022/01/16 11:06:11;;;;;;;32.60;20.98;;;6.10;99.90;;;;;;5062804;28;20041;-66
2022/01/16 11:08:38;;;;;;;36.55;21.50;;;6.10;99.90;;;;;;5063700;28;20041;-66
2022/01/16 11:11:06;;;;;;;34.85;21.10;;;6.10;99.90;;;;;;5062864;28;20089;-67
2022/01/16 11:13:34;;;;;;;38.03;20.20;;;6.20;99.90;;;;;;5061022;28;20259;-66
2022/01/16 11:16:04;;;;;;;31.98;18.65;;;6.20;99.90;;;;;;5056906;28;20115;-67
2022/01/16 11:18:32;;;;;;;26.90;16.80;;;6.20;99.90;;;;;;5056680;28;20041;-66
2022/01/16 11:23:46;;;;;;;;;;;6.30;99.90;;;;;;5057637;28;20055;-67
2022/01/16 11:26:12;;;;;;;26.65;16.42;;;6.30;99.90;;;;;;5067324;28;20232;-66
2022/01/16 11:28:38;;;;;;;29.33;15.68;;;6.30;99.90;;;;;;5061861;28;20536;-66
2022/01/16 11:31:10;;;;;;;23.65;14.23;;;6.30;99.90;;;;;;5062286;28;20118;-66
2022/01/16 11:33:37;;;;;;;27.73;15.65;;;6.30;99.90;;;;;;5063087;28;20152;-66
2022/01/16 11:36:10;;;;;;;26.80;16.15;;;6.30;99.90;;;;;;5063786;28;20036;-66
2022/01/16 11:38:40;;;;;;;28.73;17.05;;;6.40;99.90;;;;;;5058177;28;20028;-66
2022/01/16 11:41:14;;;;;;;29.70;17.95;;;6.40;99.90;;;;;;5064578;28;20043;-65
2022/01/16 11:43:44;;;;;;;27.75;15.55;;;6.40;99.90;;;;;;5066317;28;20040;-65
2022/01/16 11:46:22;;;;;;;25.92;15.30;;;6.40;99.90;;;;;;5059899;28;20099;-66
2022/01/16 11:48:58;;;;;;;27.40;15.05;;;6.40;99.90;;;;;;5059224;28;20048;-66
2022/01/16 11:51:39;;;;;;;28.20;13.68;;;6.40;99.90;;;;;;5052714;28;20044;-66
2022/01/16 11:54:09;;;;;;;25.75;12.27;;;6.40;99.90;;;;;;5053755;28;20140;-65
2022/01/16 11:56:38;;;;;;;19.40;11.02;;;6.40;99.90;;;;;;5055390;28;20123;-65
2022/01/16 11:59:18;;;;;;;15.85;10.35;;;6.40;99.90;;;;;;5056628;28;20029;-65
2022/01/16 12:01:45;;;;;;;21.33;10.20;;;6.40;99.90;;;;;;5055441;28;20099;-65
2022/01/16 12:04:29;;;;;;;20.48;8.95;;;6.40;99.90;;;;;;5062434;28;20060;-65
2022/01/16 12:07:00;;;;;;;14.07;8.82;;;6.40;99.90;;;;;;5053680;28;20048;-65
2022/01/16 12:12:12;;;;;;;19.15;8.45;;;6.50;99.90;;;;;;5048730;28;20095;-65
2022/01/16 12:15:00;;;;;;;19.90;7.90;;;6.50;99.90;;;;;;5059120;28;20075;-65
2022/01/16 12:17:29;;;;;;;18.00;8.38;;;6.50;99.90;;;;;;5055668;28;20044;-66
2022/01/16 12:19:57;;;;;;;19.98;7.90;;;6.50;99.90;;;;;;5056855;28;20034;-65
2022/01/16 12:22:47;;;;;;;15.32;8.60;;;6.60;99.90;;;;;;5051383;28;20483;-66
2022/01/16 12:25:31;;;;;;;18.08;7.85;;;6.60;99.90;;;;;;5059603;28;20041;-66
2022/01/16 12:28:14;;;;;;;15.20;7.68;;;6.70;99.90;;;;;;5059475;28;20143;-66
2022/01/16 12:30:55;;;;;;;15.13;6.82;;;6.70;99.90;;;;;;5058435;28;20044;-66
2022/01/16 12:33:23;;;;;;;13.70;7.25;;;6.70;99.90;;;;;;5052038;28;20501;-66
2022/01/16 12:35:54;;;;;;;13.80;6.82;;;6.70;99.90;;;;;;5060736;28;20252;-66
2022/01/16 12:38:22;;;;;;;16.90;7.57;;;6.70;99.90;;;;;;5059517;28;20513;-66
2022/01/16 12:40:58;;;;;;;12.23;6.30;;;6.80;99.90;;;;;;5067876;28;20037;-66
2022/01/16 12:45:52;;;;;;;14.45;6.85;;;6.80;99.90;;;;;;5062915;28;20131;-66
2022/01/16 12:48:17;;;;;;;16.20;6.07;;;6.80;99.90;;;;;;5062592;28;20040;-66
2022/01/16 12:50:43;;;;;;;14.95;6.45;;;6.80;99.90;;;;;;5069119;28;20059;-66
2022/01/16 12:53:09;;;;;;;17.13;6.88;;;6.80;99.90;;;;;;5065803;28;20051;-66
2022/01/16 12:55:35;;;;;;;12.23;6.57;;;6.80;99.90;;;;;;5066981;28;20434;-66
2022/01/16 12:58:18;;;;;;;13.20;6.55;;;6.90;99.90;;;;;;5065901;28;20079;-66
2022/01/16 13:01:16;;;;;;;13.93;6.72;;;6.90;99.90;;;;;;5065606;28;20051;-66
2022/01/16 13:03:43;;;;;;;15.85;6.43;;;6.90;99.90;;;;;;5011373;28;20489;-66
2022/01/16 13:06:29;;;;;;;18.08;5.97;;;6.90;99.90;;;;;;5066625;28;20040;-66
2022/01/16 13:08:59;;;;;;;13.77;6.55;;;6.90;99.90;;;;;;5066801;28;20044;-66
2022/01/16 13:11:46;;;;;;;14.82;7.63;;;6.90;99.90;;;;;;5063408;28;20123;-66
2022/01/16 13:14:17;;;;;;;15.60;6.95;;;6.90;99.90;;;;;;5059965;28;20118;-66
2022/01/16 13:16:48;;;;;;;16.85;6.90;;;6.90;99.90;;;;;;5065970;28;20068;-66
2022/01/16 13:19:25;;;;;;;19.42;7.10;;;7.00;99.90;;;;;;5067419;28;20032;-66
2022/01/16 13:22:05;;;;;;;15.23;6.97;;;7.00;99.90;;;;;;5059977;28;20045;-66
2022/01/16 13:24:31;;;;;;;15.30;8.00;;;7.00;99.90;;;;;;5061324;28;20041;-66